createdAt,value
2023-04-18T00:04:06.902Z,2.30
2023-04-18T00:09:30.840Z,2.28
2023-04-18T00:14:58.657Z,2.65
2023-04-18T00:20:22.584Z,2.30
2023-04-18T00:25:46.337Z,2.53
2023-04-18T00:31:11.493Z,2.63
2023-04-18T00:36:35.295Z,2.53
2023-04-18T00:41:59.220Z,2.45
2023-04-18T00:47:24.348Z,2.42
2023-04-18T00:52:48.822Z,2.85
2023-04-18T00:58:13.168Z,3.30
2023-04-18T01:03:39.666Z,2.75
2023-04-18T01:09:05.612Z,2.60
2023-04-18T01:14:29.349Z,2.67
2023-04-18T01:19:54.456Z,2.92
2023-04-18T01:25:19.574Z,3.28
2023-04-18T01:30:44.424Z,2.90
2023-04-18T01:36:08.426Z,2.80
2023-04-18T01:41:33.602Z,2.53
2023-04-18T01:46:57.397Z,3.03
2023-04-18T01:52:21.879Z,3.17
2023-04-18T01:57:48.616Z,3.70
2023-04-18T02:03:12.516Z,3.95
2023-04-18T02:08:36.512Z,3.60
2023-04-18T02:14:04.482Z,3.85
2023-04-18T02:19:28.461Z,3.72
2023-04-18T02:24:52.184Z,3.30
2023-04-18T02:30:17.507Z,3.83
2023-04-18T02:35:41.641Z,3.33
2023-04-18T02:41:06.201Z,3.20
2023-04-18T02:46:31.397Z,3.92
2023-04-18T02:51:55.844Z,3.50
2023-04-18T02:57:19.634Z,3.85
2023-04-18T03:03:11.111Z,3.70
2023-04-18T03:08:39.110Z,4.30
2023-04-18T03:14:03.116Z,3.83
2023-04-18T03:19:37.918Z,4.32
2023-04-18T03:25:07.029Z,4.38
2023-04-18T03:30:40.712Z,4.07
2023-04-18T03:36:07.313Z,4.13
2023-04-18T03:41:31.436Z,4.50
2023-04-18T03:46:56.003Z,4.70
2023-04-18T03:52:46.281Z,4.50
2023-04-18T03:58:13.337Z,4.65
2023-04-18T04:03:38.244Z,4.57
2023-04-18T04:09:04.554Z,4.60
2023-04-18T04:14:28.304Z,4.25
2023-04-18T04:19:52.508Z,3.95
2023-04-18T04:25:20.506Z,4.35
2023-04-18T04:30:45.688Z,3.67
2023-04-18T04:36:10.665Z,4.50
2023-04-18T04:41:37.696Z,4.63
2023-04-18T04:47:02.508Z,4.35
2023-04-18T04:52:32.680Z,3.47
2023-04-18T04:57:57.935Z,2.97
2023-04-18T05:03:32.072Z,3.42
2023-04-18T05:08:56.800Z,3.70
2023-04-18T05:14:21.890Z,2.90
2023-04-18T05:19:45.596Z,3.65
2023-04-18T05:25:10.341Z,3.05
2023-04-18T05:30:35.449Z,3.60
2023-04-18T05:35:59.767Z,3.70
2023-04-18T05:41:23.908Z,3.20
2023-04-18T05:46:51.369Z,3.65
2023-04-18T05:52:15.154Z,3.42
2023-04-18T05:57:38.897Z,6.63
2023-04-18T06:03:04.195Z,4.93
2023-04-18T06:08:28.106Z,4.40
2023-04-18T06:13:51.794Z,3.70
2023-04-18T06:19:17.007Z,3.55
2023-04-18T06:24:40.863Z,2.90
2023-04-18T06:30:05.263Z,3.40
2023-04-18T06:35:31.945Z,3.28
2023-04-18T06:40:55.705Z,1.90
2023-04-18T06:46:19.592Z,1.80
2023-04-18T06:51:44.833Z,1.50
2023-04-18T06:57:08.569Z,2.15
2023-04-18T07:02:32.538Z,1.80
2023-04-18T07:07:57.730Z,1.73
2023-04-18T07:13:21.483Z,1.50
2023-04-18T07:18:45.192Z,1.17
2023-04-18T07:24:10.434Z,2.00
2023-04-18T07:29:34.623Z,1.60
2023-04-18T07:34:59.165Z,1.58
2023-04-18T07:40:24.299Z,1.70
2023-04-18T07:45:48.069Z,1.67
2023-04-18T07:51:12.246Z,1.85
2023-04-18T07:56:37.424Z,1.48
2023-04-18T08:02:01.393Z,1.67
2023-04-18T08:07:25.176Z,1.80
2023-04-18T08:12:50.314Z,1.55
2023-04-18T08:18:14.100Z,1.50
2023-04-18T08:23:37.803Z,1.45
2023-04-18T08:29:03.197Z,3.35
2023-04-18T08:34:28.899Z,1.38
2023-04-18T08:39:52.616Z,1.90
2023-04-18T08:45:20.965Z,1.50
2023-04-18T08:50:46.121Z,1.80
2023-04-18T08:56:10.773Z,1.70
2023-04-18T09:01:56.804Z,1.65
2023-04-18T09:07:28.048Z,1.80
2023-04-18T09:12:52.189Z,1.88
2023-04-18T09:18:18.323Z,1.58
2023-04-18T09:23:42.166Z,1.50
2023-04-18T09:29:06.341Z,1.52
2023-04-18T09:34:34.060Z,1.90
2023-04-18T09:39:57.874Z,1.65
2023-04-18T09:45:21.792Z,1.75
2023-04-18T09:50:48.356Z,1.67
2023-04-18T09:56:16.450Z,1.35
2023-04-18T10:01:41.271Z,1.45
2023-04-18T10:07:06.620Z,1.60
2023-04-18T10:12:30.374Z,1.75
2023-04-18T10:23:48.696Z,1.38
2023-04-18T10:29:12.634Z,1.50
2023-04-18T10:34:38.318Z,1.38
2023-04-18T10:40:06.570Z,1.83
2023-04-18T10:45:36.476Z,1.55
2023-04-18T10:51:14.226Z,1.42
2023-04-18T10:56:40.368Z,2.10
2023-04-18T11:02:08.114Z,1.67
2023-04-18T11:07:35.882Z,1.73
2023-04-18T11:13:04.724Z,1.73
2023-04-18T11:18:40.163Z,1.45
2023-04-18T11:24:03.958Z,1.50
2023-04-18T11:29:29.042Z,1.45
2023-04-18T11:34:54.503Z,1.45
2023-04-18T11:40:18.385Z,1.85
2023-04-18T11:45:52.436Z,2.10
2023-04-18T11:51:35.751Z,1.50
2023-04-18T11:56:59.550Z,1.25
2023-04-18T12:02:26.305Z,1.60
2023-04-18T12:07:50.136Z,1.40
2023-04-18T12:13:14.184Z,1.15
2023-04-18T12:18:42.063Z,1.45
2023-04-18T12:24:15.355Z,1.30
2023-04-18T12:29:39.682Z,1.25
2023-04-18T12:35:06.202Z,1.88
2023-04-18T12:40:30.758Z,1.42
2023-04-18T12:45:54.617Z,1.48
2023-04-18T12:51:19.832Z,1.45
2023-04-18T12:56:43.678Z,1.30
2023-04-18T13:02:07.691Z,1.27
2023-04-18T13:07:33.048Z,1.40
2023-04-18T13:12:56.940Z,1.20
2023-04-18T13:18:20.813Z,1.40
2023-04-18T13:23:45.938Z,1.40
2023-04-18T13:29:09.650Z,1.20
2023-04-18T13:34:35.196Z,1.98
2023-04-18T13:40:00.344Z,1.40
2023-04-18T13:45:24.129Z,1.20
2023-04-18T13:50:49.380Z,1.30
2023-04-18T13:56:14.549Z,1.27
2023-04-18T14:01:38.402Z,1.55
2023-04-18T14:07:02.532Z,1.20
2023-04-18T14:12:27.720Z,1.30
2023-04-18T14:17:51.708Z,2.47
2023-04-18T14:23:16.152Z,1.40
2023-04-18T14:28:41.581Z,1.13
2023-04-18T14:34:05.781Z,1.33
2023-04-18T14:39:29.565Z,1.25
2023-04-18T14:44:55.462Z,1.27
2023-04-18T14:50:19.391Z,1.35
2023-04-18T14:55:43.115Z,1.20
2023-04-18T15:01:08.224Z,1.60
2023-04-18T15:06:32.645Z,1.20
2023-04-18T15:11:58.251Z,1.38
2023-04-18T15:17:23.414Z,1.17
2023-04-18T15:22:47.190Z,1.40
2023-04-18T15:28:11.051Z,1.25
2023-04-18T15:33:36.173Z,1.10
2023-04-18T15:38:59.896Z,1.00
2023-04-18T15:44:24.083Z,1.30
2023-04-18T15:49:49.240Z,1.00
2023-04-18T15:55:13.856Z,1.67
2023-04-18T16:00:37.577Z,1.30
2023-04-18T16:06:02.647Z,1.45
2023-04-18T16:11:26.663Z,1.65
2023-04-18T16:16:50.445Z,1.60
2023-04-18T16:22:15.603Z,1.60
2023-04-18T16:27:39.369Z,1.35
2023-04-18T16:33:03.908Z,2.03
2023-04-18T16:38:29.108Z,1.58
2023-04-18T16:43:53.850Z,2.60
2023-04-18T16:49:17.617Z,1.40
2023-04-18T16:54:42.739Z,1.75
2023-04-18T17:00:08.218Z,1.80
2023-04-18T17:05:33.296Z,2.30
2023-04-18T17:10:59.406Z,2.00
2023-04-18T17:16:23.232Z,1.92
2023-04-18T17:21:47.194Z,1.80
2023-04-18T17:27:12.557Z,1.92
2023-04-18T17:32:36.420Z,2.00
2023-04-18T17:38:00.188Z,2.03
2023-04-18T17:43:25.420Z,1.95
2023-04-18T17:48:49.380Z,2.38
2023-04-18T17:54:13.508Z,2.00
2023-04-18T17:59:38.770Z,1.80
2023-04-18T18:05:02.589Z,2.72
2023-04-18T18:10:26.330Z,2.67
2023-04-18T18:15:51.397Z,2.30
2023-04-18T18:21:24.224Z,2.47
2023-04-18T18:26:50.966Z,3.10
2023-04-18T18:32:16.952Z,2.55
2023-04-18T18:37:41.107Z,4.03
2023-04-18T18:43:04.893Z,5.28
2023-04-18T18:48:30.054Z,4.88
2023-04-18T18:53:53.866Z,3.97
2023-04-18T18:59:17.628Z,3.30
2023-04-18T19:04:42.947Z,2.60
2023-04-18T19:10:09.016Z,4.78
2023-04-18T19:15:32.769Z,4.70
2023-04-18T19:20:57.923Z,4.20
2023-04-18T19:26:21.818Z,4.90
2023-04-18T19:31:45.732Z,4.40
2023-04-18T19:37:10.892Z,4.55
2023-04-18T19:42:34.678Z,4.25
2023-04-18T19:47:58.482Z,4.53
2023-04-18T19:53:23.922Z,5.53
2023-04-18T19:58:49.068Z,5.70
2023-04-18T20:04:12.959Z,5.60
2023-04-18T20:09:38.478Z,4.88
2023-04-18T20:15:02.265Z,5.03
2023-04-18T20:20:26.008Z,5.47
2023-04-18T20:25:51.145Z,3.45
2023-04-18T20:31:17.702Z,2.95
2023-04-18T20:36:42.490Z,2.92
2023-04-18T20:42:07.800Z,2.50
2023-04-18T20:47:31.576Z,2.08
2023-04-18T20:52:55.419Z,2.28
2023-04-18T20:58:20.712Z,1.77
2023-04-18T21:03:44.749Z,1.88
2023-04-18T21:09:08.885Z,2.58
2023-04-18T21:14:33.978Z,2.42
2023-04-18T21:19:57.740Z,1.92
2023-04-18T21:25:21.866Z,2.47
2023-04-18T21:30:47.503Z,2.65
2023-04-18T21:36:11.303Z,2.67
2023-04-18T21:41:35.071Z,2.63
2023-04-18T21:47:00.360Z,2.35
2023-04-18T21:52:24.053Z,2.50
2023-04-18T21:57:47.785Z,2.60
2023-04-18T22:03:13.131Z,2.05
2023-04-18T22:08:37.233Z,2.10
2023-04-18T22:14:01.424Z,2.33
2023-04-18T22:19:29.401Z,2.45
2023-04-18T22:24:53.251Z,2.28
2023-04-18T22:30:17.007Z,1.85
2023-04-18T22:35:42.094Z,2.15
2023-04-18T22:41:06.270Z,2.60
2023-04-18T22:46:30.068Z,2.17
2023-04-18T22:51:55.186Z,2.83
2023-04-18T22:57:18.865Z,2.55
2023-04-18T23:02:42.782Z,2.63
2023-04-18T23:08:07.992Z,2.55
2023-04-18T23:13:31.698Z,2.30
2023-04-18T23:18:55.560Z,2.70
2023-04-18T23:24:20.631Z,2.72
2023-04-18T23:29:44.417Z,2.45
2023-04-18T23:35:08.553Z,3.08
2023-04-18T23:40:33.672Z,2.40
2023-04-18T23:45:57.401Z,2.60
2023-04-18T23:51:21.144Z,2.50
2023-04-18T23:56:46.272Z,2.45
